createdAt,value
2019-01-03T00:01:58.508Z,5.73
2019-01-03T00:04:40.595Z,3.80
2019-01-03T00:07:29.654Z,3.87
2019-01-03T00:10:15.871Z,4.90
2019-01-03T00:13:20.019Z,4.50
2019-01-03T00:16:12.029Z,8.93
2019-01-03T00:18:59.765Z,3.57
2019-01-03T00:21:47.525Z,5.07
2019-01-03T00:24:35.280Z,5.50
2019-01-03T00:27:23.136Z,5.53
2019-01-03T00:30:12.227Z,6.23
2019-01-03T00:32:59.817Z,6.63
2019-01-03T00:35:57.679Z,3.40
2019-01-03T00:38:55.678Z,4.37
2019-01-03T00:41:53.647Z,3.53
2019-01-03T00:44:45.772Z,4.50
2019-01-03T00:47:38.021Z,4.70
2019-01-03T00:50:32.005Z,5.57
2019-01-03T00:53:24.221Z,6.13
2019-01-03T00:56:11.861Z,3.67
2019-01-03T00:58:57.829Z,5.43
2019-01-03T01:01:40.975Z,2.07
2019-01-03T01:04:37.055Z,4.23
2019-01-03T01:07:19.794Z,5.37
2019-01-03T01:10:05.729Z,2.77
2019-01-03T01:12:53.615Z,2.97
2019-01-03T01:15:41.180Z,5.60
2019-01-03T01:18:39.836Z,4.63
2019-01-03T01:21:25.653Z,4.40
2019-01-03T01:24:13.942Z,2.20
2019-01-03T01:27:21.073Z,2.97
2019-01-03T01:30:05.793Z,4.17
2019-01-03T01:33:13.054Z,3.47
2019-01-03T01:36:02.163Z,5.57
2019-01-03T01:38:54.852Z,5.43
2019-01-03T01:41:40.900Z,4.77
2019-01-03T01:44:28.926Z,6.73
2019-01-03T01:47:27.366Z,3.57
2019-01-03T01:50:16.440Z,3.53
2019-01-03T01:53:11.640Z,5.17
2019-01-03T01:56:09.507Z,4.60
2019-01-03T01:58:57.311Z,5.03
2019-01-03T02:01:44.197Z,2.77
2019-01-03T02:04:31.820Z,6.63
2019-01-03T02:07:19.427Z,7.73
2019-01-03T02:10:07.369Z,6.77
2019-01-03T02:12:56.807Z,5.07
2019-01-03T02:15:36.158Z,4.60
2019-01-03T02:18:36.047Z,7.57
2019-01-03T02:21:25.419Z,5.67
2019-01-03T02:24:13.481Z,4.00
2019-01-03T02:27:01.451Z,4.93
2019-01-03T02:29:49.032Z,4.27
2019-01-03T02:32:41.302Z,8.00
2019-01-03T02:35:39.827Z,3.57
2019-01-03T02:38:26.602Z,4.23
2019-01-03T02:41:18.695Z,4.00
2019-01-03T02:44:07.809Z,2.47
2019-01-03T02:47:00.361Z,3.33
2019-01-03T02:49:41.794Z,3.80
2019-01-03T02:52:30.860Z,7.03
2019-01-03T02:55:28.829Z,6.13
2019-01-03T02:58:24.022Z,2.97
2019-01-03T03:01:28.079Z,3.93
2019-01-03T03:04:26.236Z,3.23
2019-01-03T03:07:27.307Z,2.63
2019-01-03T03:10:14.901Z,5.67
2019-01-03T03:13:12.413Z,4.33
2019-01-03T03:16:03.060Z,3.27
2019-01-03T03:18:57.698Z,4.67
2019-01-03T03:21:35.680Z,5.83
2019-01-03T03:24:36.546Z,3.40
2019-01-03T03:27:24.323Z,2.60
2019-01-03T03:30:28.941Z,3.40
2019-01-03T03:33:24.024Z,3.30
2019-01-03T03:36:21.999Z,2.97
2019-01-03T03:39:09.799Z,3.97
2019-01-03T03:42:07.717Z,6.83
2019-01-03T03:45:02.697Z,6.23
2019-01-03T03:47:52.122Z,3.60
2019-01-03T03:50:47.440Z,4.20
2019-01-03T03:53:37.043Z,3.60
2019-01-03T03:56:44.669Z,4.47
2019-01-03T03:59:46.053Z,3.33
2019-01-03T04:02:38.483Z,1.97
2019-01-03T04:05:27.583Z,4.37
2019-01-03T04:08:20.043Z,4.17
2019-01-03T04:11:07.898Z,1.33
2019-01-03T04:14:06.240Z,4.23
2019-01-03T04:17:01.445Z,3.67
2019-01-03T04:19:49.079Z,3.90
2019-01-03T04:22:38.353Z,4.57
2019-01-03T04:25:27.451Z,2.50
2019-01-03T04:28:27.774Z,2.47
2019-01-03T04:31:19.372Z,8.60
2019-01-03T04:34:06.882Z,3.37
2019-01-03T04:36:58.793Z,1.90
2019-01-03T04:39:46.926Z,4.23
2019-01-03T04:42:34.710Z,4.73
2019-01-03T04:45:30.047Z,3.37
2019-01-03T04:48:23.871Z,4.90
2019-01-03T04:51:15.884Z,3.20
2019-01-03T04:54:03.742Z,2.10
2019-01-03T04:56:51.528Z,3.03
2019-01-03T04:59:40.207Z,3.93
2019-01-03T05:02:27.896Z,2.77
2019-01-03T05:05:16.094Z,5.33
2019-01-03T05:08:04.397Z,2.13
2019-01-03T05:10:52.620Z,3.67
2019-01-03T05:13:44.753Z,4.33
2019-01-03T05:16:32.588Z,2.90
2019-01-03T05:19:40.009Z,3.53
2019-01-03T05:22:27.882Z,2.83
2019-01-03T05:25:25.733Z,5.70
2019-01-03T05:28:20.869Z,6.47
2019-01-03T05:31:09.981Z,2.97
2019-01-03T05:34:10.923Z,6.50
2019-01-03T05:36:59.219Z,3.40
2019-01-03T05:39:48.666Z,3.87
2019-01-03T05:42:40.535Z,3.53
2019-01-03T05:45:30.355Z,2.13
2019-01-03T05:51:13.047Z,3.00
2019-01-03T05:54:08.020Z,4.70
2019-01-03T05:57:06.108Z,2.77
2019-01-03T06:00:13.452Z,5.03
2019-01-03T06:03:17.553Z,2.23
2019-01-03T06:06:05.391Z,3.10
2019-01-03T06:09:01.302Z,4.03
2019-01-03T06:11:50.959Z,1.23
2019-01-03T06:14:58.310Z,1.87
2019-01-03T06:17:50.173Z,3.40
2019-01-03T06:20:39.235Z,3.67
2019-01-03T06:23:28.331Z,2.90
2019-01-03T06:26:15.895Z,5.40
2019-01-03T06:29:03.513Z,3.60
2019-01-03T06:31:56.250Z,2.33
2019-01-03T06:34:43.803Z,6.10
2019-01-03T06:37:31.360Z,4.47
2019-01-03T06:40:32.562Z,2.23
2019-01-03T06:43:24.924Z,4.27
2019-01-03T06:46:12.522Z,5.17
2019-01-03T06:49:07.633Z,2.40
2019-01-03T06:51:55.074Z,2.10
2019-01-03T06:54:50.880Z,5.93
2019-01-03T06:57:49.934Z,2.07
2019-01-03T07:00:37.762Z,2.37
2019-01-03T07:03:35.791Z,4.03
2019-01-03T07:06:23.315Z,5.77
2019-01-03T07:09:30.126Z,3.33
2019-01-03T07:12:37.144Z,3.80
2019-01-03T07:15:24.712Z,3.13
2019-01-03T07:18:22.843Z,3.33
2019-01-03T07:21:14.965Z,4.17
2019-01-03T07:24:00.436Z,3.60
2019-01-03T07:27:01.258Z,5.10
2019-01-03T07:29:49.705Z,3.37
2019-01-03T07:35:23.655Z,4.03
2019-01-03T07:38:11.767Z,5.33
2019-01-03T07:41:03.702Z,4.60
2019-01-03T07:43:44.589Z,3.77
2019-01-03T07:46:33.732Z,3.33
2019-01-03T07:49:35.148Z,3.13
2019-01-03T07:52:33.622Z,3.77
2019-01-03T07:55:23.401Z,1.57
2019-01-03T07:58:12.575Z,4.43
2019-01-03T08:01:00.406Z,6.50
2019-01-03T08:04:02.013Z,3.17
2019-01-03T08:06:50.767Z,2.43
2019-01-03T08:09:38.303Z,3.27
2019-01-03T08:12:33.546Z,3.63
2019-01-03T08:15:25.846Z,3.07
2019-01-03T08:18:07.637Z,2.52
2019-01-03T08:21:15.002Z,3.77
2019-01-03T08:24:06.370Z,3.72
2019-01-03T08:27:01.251Z,2.55
2019-01-03T08:29:48.889Z,5.47
2019-01-03T08:32:40.153Z,2.77
2019-01-03T08:35:32.116Z,2.80
2019-01-03T08:38:35.572Z,2.30
2019-01-03T08:41:27.722Z,6.60
2019-01-03T08:44:22.677Z,2.90
2019-01-03T08:47:10.415Z,4.15
2019-01-03T08:49:58.155Z,3.08
2019-01-03T08:53:05.135Z,5.22
2019-01-03T08:55:52.670Z,3.55
2019-01-03T08:58:46.638Z,4.42
2019-01-03T09:01:35.978Z,3.27
2019-01-03T09:04:34.159Z,4.67
2019-01-03T09:07:32.477Z,3.62
2019-01-03T09:10:21.841Z,3.92
2019-01-03T09:13:09.395Z,4.80
2019-01-03T09:16:00.475Z,3.33
2019-01-03T09:18:48.242Z,3.05
2019-01-03T09:21:32.148Z,4.00
2019-01-03T09:24:19.936Z,4.95
2019-01-03T09:27:12.461Z,3.27
2019-01-03T09:30:00.233Z,4.85
2019-01-03T09:32:48.231Z,2.08
2019-01-03T09:35:36.187Z,2.77
2019-01-03T09:38:25.336Z,2.65
2019-01-03T09:41:31.006Z,4.00
2019-01-03T09:44:29.097Z,4.55
2019-01-03T09:46:59.398Z,4.78
2019-01-03T09:49:29.648Z,3.95
2019-01-03T09:52:00.224Z,4.40
2019-01-03T09:54:30.350Z,4.33
2019-01-03T09:57:00.519Z,3.22
2019-01-03T09:59:31.195Z,3.20
2019-01-03T10:02:01.371Z,3.25
2019-01-03T10:04:31.611Z,3.62
2019-01-03T10:07:01.732Z,2.33
2019-01-03T10:09:33.203Z,5.47
2019-01-03T10:12:03.428Z,2.52
2019-01-03T10:14:34.617Z,3.42
2019-01-03T10:17:05.068Z,2.55
2019-01-03T10:19:35.732Z,2.15
2019-01-03T10:22:06.225Z,2.90
2019-01-03T10:24:36.454Z,1.62
2019-01-03T10:27:06.568Z,4.67
2019-01-03T10:29:36.792Z,6.08
2019-01-03T10:32:07.078Z,2.70
2019-01-03T10:34:37.218Z,3.35
2019-01-03T10:37:07.802Z,3.67
2019-01-03T10:39:37.944Z,4.05
2019-01-03T10:42:08.067Z,2.40
2019-01-03T10:44:38.232Z,1.90
2019-01-03T10:47:08.366Z,2.72
2019-01-03T10:49:38.736Z,3.60
2019-01-03T10:52:10.012Z,2.50
2019-01-03T10:54:40.397Z,3.80
2019-01-03T10:57:10.880Z,4.15
2019-01-03T10:59:41.046Z,5.30
2019-01-03T11:02:11.170Z,4.27
2019-01-03T11:04:41.321Z,2.65
2019-01-03T11:07:17.082Z,2.85
2019-01-03T11:09:47.291Z,3.65
2019-01-03T11:12:17.975Z,3.17
2019-01-03T11:14:48.408Z,6.00
2019-01-03T11:17:19.079Z,3.40
2019-01-03T11:19:49.339Z,2.62
2019-01-03T11:22:19.751Z,2.50
2019-01-03T11:24:50.030Z,2.83
2019-01-03T11:41:12.894Z,4.50
2019-01-03T11:43:43.199Z,2.10
2019-01-03T11:46:13.364Z,4.93
2019-01-03T11:48:43.484Z,2.60
2019-01-03T11:51:13.950Z,7.57
2019-01-03T11:53:44.106Z,3.50
2019-01-03T11:56:14.255Z,2.35
2019-01-03T11:58:44.441Z,3.45
2019-01-03T12:01:14.586Z,1.83
2019-01-03T12:03:45.157Z,2.22
2019-01-03T12:06:15.274Z,3.62
2019-01-03T12:08:45.459Z,4.40
2019-01-03T12:11:16.065Z,5.15
2019-01-03T12:13:46.229Z,3.93
2019-01-03T12:16:16.376Z,2.30
2019-01-03T12:18:46.526Z,2.98
2019-01-03T12:21:16.818Z,3.83
2019-01-03T12:23:46.980Z,3.47
2019-01-03T12:26:18.177Z,4.83
2019-01-03T12:28:48.607Z,3.50
2019-01-03T12:31:19.664Z,4.37
2019-01-03T12:33:49.870Z,1.97
2019-01-03T12:36:20.017Z,3.30
2019-01-03T12:38:50.141Z,3.20
2019-01-03T12:41:21.321Z,2.77
2019-01-03T12:43:51.451Z,2.00
2019-01-03T12:46:21.646Z,1.90
2019-01-03T12:48:52.086Z,4.33
2019-01-03T12:51:22.243Z,3.07
2019-01-03T12:53:52.400Z,4.30
2019-01-03T12:56:22.558Z,1.72
2019-01-03T12:58:53.062Z,4.17
2019-01-03T13:01:23.203Z,4.90
2019-01-03T13:03:53.382Z,5.13
2019-01-03T13:06:23.479Z,2.70
2019-01-03T13:08:53.611Z,2.70
2019-01-03T13:11:24.015Z,2.87
2019-01-03T13:13:54.177Z,1.87
2019-01-03T13:16:24.340Z,3.87
2019-01-03T13:18:55.750Z,3.73
2019-01-03T13:21:26.264Z,3.92
2019-01-03T13:23:56.523Z,3.20
2019-01-03T13:26:27.105Z,5.73
2019-01-03T13:28:57.362Z,7.87
2019-01-03T13:31:27.627Z,4.00
2019-01-03T13:33:57.845Z,4.13
2019-01-03T13:36:28.184Z,4.40
2019-01-03T13:38:58.642Z,5.43
2019-01-03T13:41:29.112Z,5.10
2019-01-03T13:43:59.555Z,3.57
2019-01-03T13:46:29.757Z,2.93
2019-01-03T13:49:00.042Z,4.23
2019-01-03T13:51:30.418Z,5.80
2019-01-03T13:54:00.627Z,6.30
2019-01-03T13:56:31.854Z,5.83
2019-01-03T13:59:01.983Z,3.80
2019-01-03T14:01:32.163Z,5.05
2019-01-03T14:04:02.295Z,6.58
2019-01-03T14:06:32.441Z,4.33
2019-01-03T14:09:03.581Z,7.30
2019-01-03T14:11:34.291Z,3.50
2019-01-03T14:14:04.664Z,6.90
2019-01-03T14:16:34.807Z,6.15
2019-01-03T14:19:05.026Z,4.63
2019-01-03T14:21:35.131Z,3.45
2019-01-03T14:24:05.290Z,5.33
2019-01-03T14:26:35.390Z,5.93
2019-01-03T14:29:05.641Z,2.50
2019-01-03T14:31:36.059Z,7.90
2019-01-03T14:34:06.197Z,5.80
2019-01-03T14:36:36.626Z,6.78
2019-01-03T14:39:08.012Z,7.50
2019-01-03T14:41:38.161Z,5.40
2019-01-03T14:44:08.611Z,5.23
2019-01-03T14:46:38.994Z,8.17
2019-01-03T14:49:09.135Z,8.90
2019-01-03T14:51:39.564Z,7.47
2019-01-03T14:54:09.686Z,3.70
2019-01-03T14:56:39.976Z,5.77
2019-01-03T14:59:10.220Z,6.90
2019-01-03T15:01:40.633Z,4.67
2019-01-03T15:04:10.806Z,7.77
2019-01-03T15:06:40.965Z,4.07
2019-01-03T15:09:11.130Z,7.33
2019-01-03T15:11:41.856Z,7.50
2019-01-03T15:14:11.986Z,7.40
2019-01-03T15:16:42.199Z,4.33
2019-01-03T15:19:12.357Z,4.67
2019-01-03T15:21:42.467Z,5.37
2019-01-03T15:24:12.876Z,5.37
2019-01-03T15:26:43.073Z,5.13
2019-01-03T15:29:13.202Z,5.70
2019-01-03T15:31:44.682Z,6.97
2019-01-03T15:34:14.860Z,7.80
2019-01-03T15:36:45.037Z,6.07
2019-01-03T15:39:15.126Z,8.60
2019-01-03T15:41:45.250Z,7.33
2019-01-03T15:44:15.531Z,10.00
2019-01-03T15:46:46.172Z,7.83
2019-01-03T15:49:16.275Z,9.67
2019-01-03T15:51:46.542Z,5.37
2019-01-03T15:54:16.882Z,8.37
2019-01-03T15:56:46.996Z,8.53
2019-01-03T15:59:18.252Z,9.73
2019-01-03T16:01:48.352Z,7.93
2019-01-03T16:04:18.547Z,9.10
2019-01-03T16:06:48.771Z,5.63
2019-01-03T16:09:18.909Z,5.60
2019-01-03T16:11:49.277Z,6.00
2019-01-03T16:14:19.481Z,14.27
2019-01-03T16:16:49.648Z,14.60
2019-01-03T16:19:19.758Z,11.27
2019-01-03T16:21:50.524Z,6.70
2019-01-03T16:24:20.965Z,8.93
2019-01-03T16:37:21.913Z,12.73
2019-01-03T16:46:25.568Z,10.93
2019-01-03T16:48:55.902Z,8.20
2019-01-03T16:51:27.190Z,8.30
2019-01-03T16:53:57.681Z,12.50
2019-01-03T16:56:28.107Z,13.43
2019-01-03T16:58:58.825Z,8.07
2019-01-03T17:01:29.090Z,8.50
2019-01-03T17:03:59.360Z,8.93
2019-01-03T17:06:29.762Z,16.23
2019-01-03T17:09:00.306Z,10.30
2019-01-03T17:11:32.232Z,22.97
2019-01-03T17:14:02.666Z,19.03
2019-01-03T17:16:32.768Z,12.13
2019-01-03T17:19:03.021Z,8.00
2019-01-03T17:21:33.106Z,12.53
2019-01-03T17:24:03.196Z,8.63
2019-01-03T17:26:33.610Z,6.93
2019-01-03T17:29:04.079Z,9.20
2019-01-03T17:31:34.261Z,9.40
2019-01-03T17:34:04.528Z,11.20
2019-01-03T17:36:34.643Z,8.67
2019-01-03T17:39:06.538Z,9.17
2019-01-03T17:41:36.855Z,7.13
2019-01-03T17:44:07.329Z,8.63
2019-01-03T17:46:37.745Z,16.43
2019-01-03T17:49:07.859Z,11.20
2019-01-03T17:51:38.012Z,7.30
2019-01-03T17:54:08.928Z,14.33
2019-01-03T17:56:39.419Z,8.00
2019-01-03T17:59:09.530Z,14.37
2019-01-03T18:01:39.899Z,8.17
2019-01-03T18:04:10.014Z,12.37
2019-01-03T18:06:40.159Z,11.13
2019-01-03T18:09:10.715Z,10.07
2019-01-03T18:11:40.916Z,8.93
2019-01-03T18:14:12.541Z,13.87
2019-01-03T18:16:42.717Z,10.77
2019-01-03T18:19:12.878Z,9.97
2019-01-03T18:21:43.294Z,12.20
2019-01-03T18:24:13.444Z,9.37
2019-01-03T18:26:43.832Z,12.73
2019-01-03T18:29:13.937Z,9.60
2019-01-03T18:31:44.139Z,6.00
2019-01-03T18:34:14.340Z,7.77
2019-01-03T18:36:44.544Z,6.57
2019-01-03T18:39:14.725Z,10.43
2019-01-03T18:41:44.823Z,11.60
2019-01-03T18:44:15.981Z,11.83
2019-01-03T18:46:46.070Z,9.27
2019-01-03T18:49:16.348Z,9.07
2019-01-03T18:51:46.502Z,11.40
2019-01-03T18:54:17.598Z,13.07
2019-01-03T18:56:47.736Z,5.53
2019-01-03T18:59:17.851Z,7.40
2019-01-03T19:01:48.076Z,7.30
2019-01-03T19:04:18.459Z,9.47
2019-01-03T19:06:48.601Z,15.17
2019-01-03T19:09:18.700Z,7.17
2019-01-03T19:11:48.994Z,11.03
2019-01-03T19:14:19.180Z,14.30
2019-01-03T19:16:49.250Z,8.40
2019-01-03T19:19:19.495Z,5.50
2019-01-03T19:21:49.847Z,11.00
2019-01-03T19:24:21.260Z,7.10
2019-01-03T19:26:51.447Z,9.33
2019-01-03T19:29:21.573Z,8.33
2019-01-03T19:31:52.713Z,10.60
2019-01-03T19:34:22.893Z,9.73
2019-01-03T19:36:53.000Z,7.30
2019-01-03T19:39:23.413Z,10.60
2019-01-03T19:41:53.900Z,7.60
2019-01-03T19:44:24.032Z,9.90
2019-01-03T19:46:54.177Z,7.83
2019-01-03T19:49:24.333Z,7.50
2019-01-03T19:51:54.511Z,7.73
2019-01-03T19:54:24.994Z,5.43
2019-01-03T19:56:55.112Z,8.03
2019-01-03T19:59:25.506Z,9.20
2019-01-03T20:01:55.623Z,7.47
2019-01-03T20:04:25.747Z,6.40
2019-01-03T20:06:56.208Z,9.77
2019-01-03T20:09:26.368Z,8.20
2019-01-03T20:11:56.959Z,8.20
2019-01-03T20:14:27.192Z,9.10
2019-01-03T20:16:57.393Z,5.90
2019-01-03T20:19:27.520Z,6.40
2019-01-03T20:21:57.796Z,9.93
2019-01-03T20:24:28.911Z,5.97
2019-01-03T20:26:59.053Z,10.53
2019-01-03T20:29:29.191Z,7.57
2019-01-03T20:31:59.704Z,6.73
2019-01-03T20:34:30.067Z,7.13
2019-01-03T20:37:00.210Z,7.23
2019-01-03T20:39:30.659Z,8.67
2019-01-03T20:42:00.929Z,10.63
2019-01-03T20:44:31.374Z,9.47
2019-01-03T20:47:01.815Z,9.27
2019-01-03T20:49:32.269Z,10.93
2019-01-03T20:52:02.946Z,7.20
2019-01-03T20:54:33.097Z,7.43
2019-01-03T20:57:03.224Z,8.63
2019-01-03T20:59:33.547Z,11.43
2019-01-03T21:02:03.976Z,15.10
2019-01-03T21:04:34.132Z,10.60
2019-01-03T21:07:04.277Z,7.37
2019-01-03T21:09:34.370Z,13.00
2019-01-03T21:12:04.881Z,9.90
2019-01-03T21:14:35.287Z,12.13
2019-01-03T21:17:05.422Z,11.50
2019-01-03T21:19:35.894Z,9.07
2019-01-03T21:22:06.039Z,7.40
2019-01-03T21:24:36.290Z,8.27
2019-01-03T21:27:06.443Z,11.07
2019-01-03T21:29:36.631Z,8.20
2019-01-03T21:32:06.796Z,12.50
2019-01-03T21:34:37.353Z,13.30
2019-01-03T21:37:08.488Z,9.73
2019-01-03T21:39:38.586Z,9.10
2019-01-03T21:42:08.826Z,10.43
2019-01-03T21:44:38.919Z,12.50
2019-01-03T21:47:09.846Z,11.03
2019-01-03T21:49:40.304Z,13.20
2019-01-03T21:52:10.551Z,11.70
2019-01-03T21:54:40.858Z,11.87
2019-01-03T21:57:11.121Z,11.77
2019-01-03T21:59:41.579Z,13.63
2019-01-03T22:02:11.942Z,13.67
2019-01-03T22:04:42.087Z,13.83
2019-01-03T22:07:12.620Z,13.27
2019-01-03T22:09:42.758Z,14.03
2019-01-03T22:12:12.932Z,13.67
2019-01-03T22:14:43.177Z,13.67
2019-01-03T22:17:13.366Z,11.50
2019-01-03T22:19:43.782Z,14.90
2019-01-03T22:22:13.922Z,13.90
2019-01-03T22:24:44.611Z,11.60
2019-01-03T22:27:14.707Z,13.97
2019-01-03T22:29:44.824Z,12.28
2019-01-03T22:32:15.187Z,11.37
2019-01-03T22:34:45.648Z,11.70
2019-01-03T22:37:15.763Z,9.47
2019-01-03T22:39:46.168Z,13.83
2019-01-03T22:42:16.291Z,11.90
2019-01-03T22:44:46.457Z,15.00
2019-01-03T22:47:16.955Z,13.10
2019-01-03T22:49:47.066Z,13.63
2019-01-03T22:52:17.489Z,16.05
2019-01-03T22:54:47.593Z,14.87
2019-01-03T22:57:18.000Z,14.33
2019-01-03T22:59:48.704Z,12.87
2019-01-03T23:02:18.831Z,13.00
2019-01-03T23:04:49.603Z,14.23
2019-01-03T23:07:19.892Z,14.50
2019-01-03T23:09:50.046Z,14.63
2019-01-03T23:12:20.166Z,12.80
2019-01-03T23:14:50.694Z,10.73
2019-01-03T23:17:21.010Z,13.93
2019-01-03T23:19:51.152Z,15.50
2019-01-03T23:22:21.294Z,12.90
2019-01-03T23:24:51.452Z,13.33
2019-01-03T23:27:21.852Z,12.40
2019-01-03T23:29:52.259Z,9.97
2019-01-03T23:32:22.381Z,13.37
2019-01-03T23:34:52.487Z,13.00
2019-01-03T23:37:22.584Z,14.10
2019-01-03T23:39:52.704Z,15.77
2019-01-03T23:42:22.812Z,12.33
2019-01-03T23:45:14.961Z,14.30
2019-01-03T23:47:45.078Z,13.43
2019-01-03T23:50:17.273Z,12.43
2019-01-03T23:52:47.388Z,12.63
2019-01-03T23:55:17.820Z,14.90
2019-01-03T23:57:47.923Z,11.60
